Terminal Aerodrome Forecast
Issued by NWS

Home | Current Version | Previous Version | Graphics & Text | Print | Product List | Glossary On
Versions: 1 2 3 4 5 6 7 8 9 10 11 12 13 14 15 16 17 18 19
717
FTUS42 KMHX 221748 AAE
TAFISO
TAF AMD
KISO 221748Z 2218/2318 06006KT P6SM VCTS SCT030CB
     FM230000 VRB04KT P6SM VCTS OVC025CB
     FM230200 VRB04KT P6SM VCSH BKN008 OVC025
     FM230900 03005KT 3SM BR BKN003 OVC025
     FM231300 VRB04KT P6SM BKN008 OVC050
     FM231600 02005KT P6SM BKN070
      AMD LTD TO CLD VIS AND WIND=

USA.gov is the U.S. government's official web portal to all federal, state and local government web resources and services.